createdAt,value
2022-12-11T00:02:01.447Z,37.40
2022-12-11T00:04:49.146Z,42.60
2022-12-11T00:07:37.101Z,36.00
2022-12-11T00:10:24.894Z,42.50
2022-12-11T00:13:12.353Z,41.20
2022-12-11T00:16:00.084Z,46.80
2022-12-11T00:18:47.981Z,51.30
2022-12-11T00:21:35.882Z,53.60
2022-12-11T00:24:23.455Z,45.90
2022-12-11T00:27:12.633Z,49.60
2022-12-11T00:30:00.505Z,56.40
2022-12-11T00:32:48.425Z,64.50
2022-12-11T00:35:42.252Z,59.20
2022-12-11T00:38:30.134Z,47.60
2022-12-11T00:41:19.199Z,43.20
2022-12-11T00:44:08.070Z,41.80
2022-12-11T00:46:55.878Z,42.70
2022-12-11T00:49:49.932Z,47.90
2022-12-11T00:52:42.265Z,41.40
2022-12-11T00:55:30.851Z,42.50
2022-12-11T00:58:19.536Z,49.10
2022-12-11T01:01:14.809Z,49.00
2022-12-11T01:04:06.083Z,46.20
2022-12-11T01:06:53.878Z,45.00
2022-12-11T01:10:00.109Z,46.00
2022-12-11T01:12:49.570Z,47.30
2022-12-11T01:15:46.113Z,38.10
2022-12-11T01:18:34.077Z,31.30
2022-12-11T01:21:22.698Z,27.90
2022-12-11T01:24:10.629Z,22.30
2022-12-11T01:26:58.726Z,25.30
2022-12-11T01:29:46.718Z,28.10
2022-12-11T01:32:36.249Z,31.80
2022-12-11T01:35:24.493Z,39.40
2022-12-11T01:38:14.808Z,39.10
2022-12-11T01:41:02.338Z,34.20
2022-12-11T01:44:15.423Z,39.80
2022-12-11T01:47:02.987Z,33.10
2022-12-11T01:49:51.447Z,32.20
2022-12-11T01:52:41.531Z,33.50
2022-12-11T01:55:29.676Z,30.20
2022-12-11T01:58:20.887Z,26.50
2022-12-11T02:01:14.809Z,33.30
2022-12-11T02:04:03.065Z,42.40
2022-12-11T02:06:53.146Z,36.50
2022-12-11T02:09:43.950Z,38.40
2022-12-11T02:13:05.232Z,29.40
2022-12-11T02:16:13.195Z,33.00
2022-12-11T02:19:18.672Z,117.10
2022-12-11T02:22:14.067Z,306.50
2022-12-11T02:25:42.494Z,182.00
2022-12-11T02:28:51.628Z,141.20
2022-12-11T02:31:47.618Z,165.20
2022-12-11T02:34:39.803Z,287.00
2022-12-11T02:37:31.981Z,225.10
2022-12-11T02:40:23.256Z,215.60
2022-12-11T02:43:16.874Z,184.30
2022-12-11T02:46:07.816Z,180.10
2022-12-11T02:48:57.119Z,145.60
2022-12-11T02:51:45.132Z,115.20
2022-12-11T02:54:38.155Z,73.80
2022-12-11T02:57:46.175Z,62.00
2022-12-11T03:00:34.367Z,56.30
2022-12-11T03:03:22.913Z,56.10
2022-12-11T03:06:18.416Z,61.20
2022-12-11T03:09:07.763Z,50.70
2022-12-11T03:11:55.496Z,37.40
2022-12-11T03:14:43.987Z,29.30
2022-12-11T03:17:53.131Z,28.40
2022-12-11T03:21:15.069Z,20.70
2022-12-11T03:24:20.136Z,24.50
2022-12-11T03:27:26.138Z,25.80
2022-12-11T03:30:19.062Z,24.80
2022-12-11T03:33:16.064Z,31.60
2022-12-11T03:36:11.120Z,28.40
2022-12-11T03:39:05.957Z,26.40
2022-12-11T03:41:55.934Z,25.90
2022-12-11T03:44:48.180Z,24.10
2022-12-11T03:47:37.719Z,23.20
2022-12-11T03:50:28.598Z,23.30
2022-12-11T03:53:18.889Z,25.00
2022-12-11T03:56:09.323Z,22.10
2022-12-11T03:58:57.885Z,19.50
2022-12-11T04:01:46.703Z,20.60
2022-12-11T04:04:34.558Z,22.80
2022-12-11T04:07:22.614Z,27.10
2022-12-11T04:10:10.474Z,26.40
2022-12-11T04:12:58.031Z,26.30
2022-12-11T04:15:45.450Z,26.80
2022-12-11T04:18:51.779Z,24.40
2022-12-11T04:21:58.152Z,26.10
2022-12-11T04:24:49.526Z,119.70
2022-12-11T04:27:49.193Z,60.30
2022-12-11T04:30:38.031Z,45.80
2022-12-11T04:33:26.046Z,58.50
2022-12-11T04:36:14.129Z,45.30
2022-12-11T04:39:02.058Z,45.00
2022-12-11T04:41:50.724Z,40.30
2022-12-11T04:44:38.615Z,33.50
2022-12-11T04:47:26.835Z,26.60
2022-12-11T04:50:15.815Z,25.80
2022-12-11T04:53:05.880Z,25.20
2022-12-11T04:55:55.188Z,25.30
2022-12-11T04:58:44.349Z,25.70
2022-12-11T05:01:32.077Z,25.40
2022-12-11T05:04:19.842Z,28.50
2022-12-11T05:07:09.499Z,29.60
2022-12-11T05:09:57.546Z,25.00
2022-12-11T05:12:44.912Z,28.70
2022-12-11T05:15:32.835Z,24.60
2022-12-11T05:18:20.681Z,23.30
2022-12-11T05:21:14.188Z,27.40
2022-12-11T05:24:02.070Z,20.10
2022-12-11T05:26:49.385Z,25.10
2022-12-11T05:29:37.801Z,27.30
2022-12-11T05:32:25.235Z,23.00
2022-12-11T05:35:12.748Z,18.00
2022-12-11T05:38:01.588Z,22.30
2022-12-11T05:41:05.517Z,18.40
2022-12-11T05:43:53.817Z,18.30
2022-12-11T05:46:41.793Z,15.40
2022-12-11T05:49:31.235Z,13.00
2022-12-11T05:52:19.237Z,11.80
2022-12-11T05:55:07.815Z,11.70
2022-12-11T05:57:55.672Z,9.40
2022-12-11T06:00:43.395Z,9.00
2022-12-11T06:03:31.266Z,10.20
2022-12-11T06:06:18.845Z,10.60
2022-12-11T06:09:07.980Z,12.60
2022-12-11T06:11:55.449Z,10.20
2022-12-11T06:14:43.127Z,10.90
2022-12-11T06:17:31.133Z,9.70
2022-12-11T06:20:18.987Z,8.70
2022-12-11T06:23:07.213Z,8.30
2022-12-11T06:25:55.020Z,10.20
2022-12-11T06:28:42.866Z,9.50
2022-12-11T06:31:30.586Z,8.70
2022-12-11T06:34:18.435Z,8.60
2022-12-11T06:37:06.006Z,8.70
2022-12-11T06:39:53.519Z,9.20
2022-12-11T06:42:41.040Z,10.40
2022-12-11T06:45:28.631Z,9.60
2022-12-11T06:48:16.480Z,10.10
2022-12-11T06:51:16.318Z,10.20
2022-12-11T06:54:04.191Z,34.20
2022-12-11T06:56:51.821Z,14.70
2022-12-11T06:59:39.869Z,10.40
2022-12-11T07:02:27.672Z,10.00
2022-12-11T07:05:15.264Z,10.10
2022-12-11T07:08:02.834Z,10.00
2022-12-11T07:10:50.671Z,8.60
2022-12-11T07:13:38.816Z,10.10
2022-12-11T07:16:26.701Z,8.90
2022-12-11T07:19:14.433Z,10.30
2022-12-11T07:22:02.099Z,10.80
2022-12-11T07:24:50.028Z,10.00
2022-12-11T07:27:37.815Z,11.10
2022-12-11T07:30:25.587Z,9.70
2022-12-11T07:33:13.231Z,11.60
2022-12-11T07:36:06.970Z,10.10
2022-12-11T07:38:54.884Z,7.30
2022-12-11T07:41:42.357Z,8.80
2022-12-11T07:44:32.123Z,8.80
2022-12-11T07:47:20.312Z,8.20
2022-12-11T07:50:08.504Z,7.30
2022-12-11T07:52:56.174Z,8.10
2022-12-11T07:55:43.527Z,7.40
2022-12-11T07:58:56.025Z,7.40
2022-12-11T08:01:44.609Z,7.70
2022-12-11T08:04:35.443Z,6.60
2022-12-11T08:07:23.332Z,7.70
2022-12-11T08:10:10.942Z,7.10
2022-12-11T08:12:58.889Z,7.00
2022-12-11T08:15:48.728Z,8.40
2022-12-11T08:18:37.804Z,8.10
2022-12-11T08:21:29.103Z,8.00
2022-12-11T08:24:21.564Z,9.00
2022-12-11T08:27:09.498Z,8.50
2022-12-11T08:29:57.292Z,6.60
2022-12-11T08:32:44.845Z,7.60
2022-12-11T08:35:39.925Z,6.90
2022-12-11T08:38:27.711Z,7.70
2022-12-11T08:41:20.263Z,7.60
2022-12-11T08:44:16.765Z,7.50
2022-12-11T08:47:05.054Z,8.00
2022-12-11T08:49:53.069Z,8.00
2022-12-11T08:52:42.197Z,7.20
2022-12-11T08:55:29.813Z,7.50
2022-12-11T08:58:17.566Z,8.10
2022-12-11T09:01:10.925Z,7.20
2022-12-11T09:04:00.665Z,7.10
2022-12-11T09:06:48.635Z,8.90
2022-12-11T09:09:36.642Z,7.30
2022-12-11T09:12:24.317Z,7.70
2022-12-11T09:15:12.526Z,7.70
2022-12-11T09:18:00.440Z,7.00
2022-12-11T09:20:48.429Z,7.40
2022-12-11T09:23:36.702Z,7.50
2022-12-11T09:26:25.514Z,6.90
2022-12-11T09:29:13.880Z,8.80
2022-12-11T09:32:01.860Z,9.90
2022-12-11T09:34:51.935Z,8.50
2022-12-11T09:37:39.428Z,9.30
2022-12-11T09:40:28.283Z,8.10
2022-12-11T09:43:20.672Z,8.30
2022-12-11T09:46:15.792Z,7.00
2022-12-11T09:49:12.059Z,8.60
2022-12-11T09:52:23.867Z,7.40
2022-12-11T09:55:24.320Z,8.00
2022-12-11T09:58:28.282Z,9.60
2022-12-11T10:01:24.866Z,9.80
2022-12-11T10:04:42.986Z,12.20
2022-12-11T10:07:39.982Z,11.20
2022-12-11T10:10:48.977Z,12.50
2022-12-11T10:13:45.677Z,11.00
2022-12-11T10:16:46.882Z,12.90
2022-12-11T10:19:35.123Z,16.00
2022-12-11T10:22:29.959Z,11.60
2022-12-11T10:25:26.172Z,12.20
2022-12-11T10:28:18.385Z,12.10
2022-12-11T10:31:51.309Z,12.60
2022-12-11T10:34:45.355Z,10.20
2022-12-11T10:37:33.131Z,10.90
2022-12-11T10:40:22.410Z,9.20
2022-12-11T10:43:10.812Z,10.10
2022-12-11T10:45:58.925Z,8.90
2022-12-11T10:48:55.426Z,10.90
2022-12-11T10:51:42.914Z,10.30
2022-12-11T10:54:40.465Z,10.90
2022-12-11T10:57:36.273Z,10.10
2022-12-11T11:00:40.790Z,9.50
2022-12-11T11:03:29.292Z,8.90
2022-12-11T11:06:20.243Z,9.80
2022-12-11T11:09:37.419Z,8.80
2022-12-11T11:12:28.404Z,9.10
2022-12-11T11:15:31.018Z,8.90
2022-12-11T11:18:30.846Z,8.40
2022-12-11T11:21:21.795Z,8.00
2022-12-11T11:24:29.788Z,6.60
2022-12-11T11:27:46.144Z,7.80
2022-12-11T11:30:41.030Z,8.40
2022-12-11T11:33:30.973Z,7.00
2022-12-11T11:36:28.793Z,7.20
2022-12-11T11:39:29.540Z,6.20
2022-12-11T11:42:37.752Z,7.10
2022-12-11T11:45:33.451Z,7.00
2022-12-11T11:48:48.310Z,7.40
2022-12-11T11:51:56.216Z,7.60
2022-12-11T11:55:06.118Z,6.90
2022-12-11T11:58:15.374Z,7.30
2022-12-11T12:01:02.801Z,7.00
2022-12-11T12:03:51.790Z,8.40
2022-12-11T12:07:14.561Z,6.90
2022-12-11T12:10:46.242Z,7.10
2022-12-11T12:14:01.489Z,8.20
2022-12-11T12:17:09.376Z,7.00
2022-12-11T12:20:25.091Z,7.80
2022-12-11T12:24:01.874Z,10.10
2022-12-11T12:27:50.365Z,7.00
2022-12-11T12:30:35.674Z,6.80
2022-12-11T12:33:29.675Z,7.50
2022-12-11T12:37:00.448Z,14.60
2022-12-11T12:40:32.767Z,7.10
2022-12-11T12:44:07.098Z,7.00
2022-12-11T12:47:14.979Z,6.20
2022-12-11T12:50:05.085Z,8.10
2022-12-11T12:52:54.387Z,7.60
2022-12-11T12:55:42.863Z,7.00
2022-12-11T12:58:36.314Z,7.90
2022-12-11T13:01:27.382Z,10.50
2022-12-11T13:08:05.926Z,6.60
2022-12-11T13:11:09.077Z,6.30
2022-12-11T13:14:28.099Z,6.60
2022-12-11T13:17:21.990Z,7.80
2022-12-11T13:20:20.139Z,7.10
2022-12-11T13:23:07.437Z,8.00
2022-12-11T13:26:04.051Z,6.50
2022-12-11T13:28:52.255Z,7.30
2022-12-11T13:31:45.278Z,7.10
2022-12-11T13:34:36.273Z,7.10
2022-12-11T13:37:36.161Z,6.90
2022-12-11T13:40:35.178Z,6.20
2022-12-11T13:43:27.504Z,7.40
2022-12-11T13:46:19.684Z,7.10
2022-12-11T13:49:17.977Z,6.80
2022-12-11T13:52:07.560Z,9.20
2022-12-11T13:54:59.234Z,7.70
2022-12-11T13:57:47.334Z,5.70
2022-12-11T14:00:35.169Z,7.60
2022-12-11T14:03:23.675Z,7.80
2022-12-11T14:06:18.373Z,6.30
2022-12-11T14:09:08.387Z,9.10
2022-12-11T14:11:57.459Z,7.80
2022-12-11T14:14:55.209Z,7.60
2022-12-11T14:17:48.491Z,7.70
2022-12-11T14:20:39.342Z,8.00
2022-12-11T14:23:31.903Z,8.00
2022-12-11T14:26:30.880Z,8.10
2022-12-11T14:29:33.819Z,8.80
2022-12-11T14:32:42.019Z,10.90
2022-12-11T14:35:38.915Z,6.70
2022-12-11T14:38:37.184Z,7.60
2022-12-11T14:41:57.781Z,6.70
2022-12-11T14:44:55.459Z,9.20
2022-12-11T14:47:44.803Z,9.20
2022-12-11T14:50:43.808Z,8.60
2022-12-11T14:53:40.948Z,8.80
2022-12-11T14:56:30.397Z,6.90
2022-12-11T14:59:29.980Z,7.20
2022-12-11T15:02:35.951Z,8.70
2022-12-11T15:05:24.253Z,8.00
2022-12-11T15:08:12.714Z,10.40
2022-12-11T15:11:16.861Z,9.30
2022-12-11T15:14:06.024Z,8.20
2022-12-11T15:16:57.632Z,9.80
2022-12-11T15:19:53.441Z,9.00
2022-12-11T15:22:44.077Z,14.70
2022-12-11T15:25:32.764Z,11.50
2022-12-11T15:28:37.423Z,8.70
2022-12-11T15:31:32.199Z,8.00
2022-12-11T15:34:23.911Z,9.10
2022-12-11T15:37:22.278Z,8.20
2022-12-11T15:40:11.298Z,7.70
2022-12-11T15:43:03.324Z,7.50
2022-12-11T15:45:51.485Z,9.60
2022-12-11T15:48:39.217Z,7.40
2022-12-11T15:51:27.738Z,7.10
2022-12-11T15:54:15.729Z,7.90
2022-12-11T15:57:07.983Z,6.70
2022-12-11T15:59:55.650Z,7.10
2022-12-11T16:02:43.383Z,7.70
2022-12-11T16:05:33.502Z,6.80
2022-12-11T16:08:23.699Z,7.10
2022-12-11T16:11:14.010Z,6.90
2022-12-11T16:14:04.431Z,6.20
2022-12-11T16:16:52.212Z,6.50
2022-12-11T16:19:42.214Z,8.30
2022-12-11T16:22:29.779Z,7.00
2022-12-11T16:25:17.560Z,8.90
2022-12-11T16:28:05.759Z,12.80
2022-12-11T16:30:53.625Z,12.00
2022-12-11T16:33:41.615Z,10.50
2022-12-11T16:36:29.336Z,13.10
2022-12-11T16:39:17.352Z,9.50
2022-12-11T16:42:06.496Z,9.90
2022-12-11T16:44:54.058Z,8.60
2022-12-11T16:47:42.115Z,9.80
2022-12-11T16:50:29.739Z,11.20
2022-12-11T16:53:17.689Z,9.90
2022-12-11T16:56:07.040Z,8.00
2022-12-11T16:58:55.129Z,7.70
2022-12-11T17:01:42.947Z,8.00
2022-12-11T17:04:30.872Z,9.00
2022-12-11T17:07:19.698Z,8.70
2022-12-11T17:10:08.250Z,9.40
2022-12-11T17:12:55.831Z,10.50
2022-12-11T17:15:45.206Z,8.70
2022-12-11T17:18:33.779Z,10.70
2022-12-11T17:21:22.863Z,10.80
2022-12-11T17:24:10.904Z,10.20
2022-12-11T17:26:59.897Z,10.20
2022-12-11T17:29:49.864Z,9.80
2022-12-11T17:32:38.277Z,10.30
2022-12-11T17:35:25.853Z,9.90
2022-12-11T17:38:13.764Z,11.10
2022-12-11T17:41:08.023Z,7.60
2022-12-11T17:43:56.057Z,7.30
2022-12-11T17:46:43.826Z,7.10
2022-12-11T17:49:31.453Z,7.90
2022-12-11T17:52:19.971Z,8.40
2022-12-11T17:55:08.669Z,9.30
2022-12-11T17:57:56.399Z,9.90
2022-12-11T18:00:46.580Z,8.40
2022-12-11T18:03:35.215Z,9.50
2022-12-11T18:06:23.368Z,9.00
2022-12-11T18:09:11.371Z,10.10
2022-12-11T18:11:59.127Z,9.70
2022-12-11T18:14:46.863Z,9.70
2022-12-11T18:17:35.440Z,8.40
2022-12-11T18:20:23.331Z,12.60
2022-12-11T18:23:11.048Z,7.50
2022-12-11T18:25:58.506Z,8.10
2022-12-11T18:28:47.681Z,7.80
2022-12-11T18:31:40.654Z,8.30
2022-12-11T18:34:30.264Z,9.20
2022-12-11T18:37:18.000Z,7.30
2022-12-11T18:40:07.640Z,7.70
2022-12-11T18:42:55.998Z,6.90
2022-12-11T18:45:45.721Z,10.60
2022-12-11T18:48:33.692Z,11.10
2022-12-11T18:51:23.995Z,9.40
2022-12-11T18:54:12.269Z,12.20
2022-12-11T18:57:00.142Z,14.50
2022-12-11T18:59:53.173Z,11.40
2022-12-11T19:02:40.763Z,8.70
2022-12-11T19:05:29.606Z,10.30
2022-12-11T19:08:17.767Z,7.40
2022-12-11T19:11:07.428Z,6.50
2022-12-11T19:13:56.816Z,7.40
2022-12-11T19:16:47.627Z,7.90
2022-12-11T19:19:36.098Z,11.80
2022-12-11T19:22:23.965Z,11.50
2022-12-11T19:25:12.209Z,10.90
2022-12-11T19:28:01.041Z,9.40
2022-12-11T19:30:49.867Z,18.30
2022-12-11T19:33:38.578Z,16.20
2022-12-11T19:36:30.669Z,14.40
2022-12-11T19:39:19.801Z,10.20
2022-12-11T19:42:07.821Z,11.80
2022-12-11T19:44:56.015Z,9.70
2022-12-11T19:47:43.830Z,8.70
2022-12-11T19:50:31.674Z,9.60
2022-12-11T19:53:19.319Z,11.10
2022-12-11T19:56:08.391Z,9.20
2022-12-11T19:58:57.091Z,9.40
2022-12-11T20:01:49.683Z,10.60
2022-12-11T20:04:37.344Z,10.60
2022-12-11T20:07:30.332Z,11.10
2022-12-11T20:10:20.233Z,9.50
2022-12-11T20:13:08.201Z,10.20
2022-12-11T20:15:57.146Z,9.10
2022-12-11T20:18:45.916Z,9.00
2022-12-11T20:21:33.786Z,8.30
2022-12-11T20:24:22.243Z,12.90
2022-12-11T20:27:10.211Z,11.50
2022-12-11T20:29:57.749Z,11.30
2022-12-11T20:32:45.927Z,11.70
2022-12-11T20:35:34.019Z,10.50
2022-12-11T20:38:22.271Z,6.90
2022-12-11T20:41:15.334Z,8.00
2022-12-11T20:44:02.768Z,8.20
2022-12-11T20:46:50.982Z,7.80
2022-12-11T20:49:39.453Z,8.50
2022-12-11T20:52:28.148Z,9.80
2022-12-11T20:55:15.809Z,8.50
2022-12-11T20:58:03.135Z,9.40
2022-12-11T21:00:51.440Z,8.60
2022-12-11T21:03:42.105Z,9.80
2022-12-11T21:06:34.728Z,9.80
2022-12-11T21:09:25.505Z,12.00
2022-12-11T21:12:13.658Z,11.10
2022-12-11T21:15:01.564Z,8.30
2022-12-11T21:17:48.979Z,9.10
2022-12-11T21:20:36.776Z,8.70
2022-12-11T21:23:25.026Z,8.20
2022-12-11T21:26:13.848Z,8.80
2022-12-11T21:29:01.379Z,6.20
2022-12-11T21:31:49.866Z,9.70
2022-12-11T21:34:38.271Z,8.50
2022-12-11T21:37:26.103Z,7.60
2022-12-11T21:40:14.141Z,7.10
2022-12-11T21:43:01.567Z,9.10
2022-12-11T21:46:00.889Z,9.20
2022-12-11T21:48:49.956Z,7.80
2022-12-11T21:51:46.788Z,7.40
2022-12-11T21:54:35.767Z,8.30
2022-12-11T21:57:26.519Z,8.60
2022-12-11T22:00:16.070Z,8.60
2022-12-11T22:03:03.869Z,7.30
2022-12-11T22:05:52.309Z,8.40
2022-12-11T22:08:39.969Z,7.30
2022-12-11T22:11:31.819Z,9.60
2022-12-11T22:14:19.551Z,7.00
2022-12-11T22:17:07.547Z,8.50
2022-12-11T22:19:55.307Z,8.20
2022-12-11T22:22:42.932Z,8.40
2022-12-11T22:25:31.761Z,8.20
2022-12-11T22:28:20.020Z,7.20
2022-12-11T22:31:12.382Z,9.70
2022-12-11T22:34:00.161Z,6.80
2022-12-11T22:36:48.495Z,6.80
2022-12-11T22:39:36.457Z,8.70
2022-12-11T22:42:24.822Z,8.50
2022-12-11T22:45:12.793Z,9.10
2022-12-11T22:48:00.936Z,8.50
2022-12-11T22:50:48.790Z,9.60
2022-12-11T22:53:36.273Z,9.00
2022-12-11T22:56:24.262Z,7.80
2022-12-11T22:59:12.252Z,7.20
2022-12-11T23:02:02.403Z,9.80
2022-12-11T23:04:51.037Z,6.50
2022-12-11T23:07:39.652Z,8.60
2022-12-11T23:10:27.424Z,7.30
2022-12-11T23:13:15.302Z,8.00
2022-12-11T23:16:03.039Z,11.00
2022-12-11T23:18:51.048Z,8.00
2022-12-11T23:21:39.249Z,7.30
2022-12-11T23:24:26.492Z,7.90
2022-12-11T23:27:14.109Z,5.90
2022-12-11T23:30:01.915Z,6.00
2022-12-11T23:32:50.009Z,7.70
2022-12-11T23:35:37.968Z,6.50
2022-12-11T23:38:25.833Z,7.90
2022-12-11T23:41:16.356Z,8.00
2022-12-11T23:44:04.786Z,7.90
2022-12-11T23:46:52.619Z,8.90
2022-12-11T23:49:40.085Z,7.50
2022-12-11T23:52:27.968Z,8.40
2022-12-11T23:55:15.864Z,6.00
2022-12-11T23:58:03.410Z,7.10
